sensor_id;sensor_type;location;lat;lon;timestamp;pressure;altitude;pressure_sealevel;temperature;humidity
37848;BME280;23688;33.130;-117.188;2023-04-27T00:00:29;99244.25;;;19.13;87.85
37848;BME280;23688;33.130;-117.188;2023-04-27T00:02:56;99240.53;;;18.58;90.66
37848;BME280;23688;33.130;-117.188;2023-04-27T00:05:22;99251.91;;;18.59;91.35
37848;BME280;23688;33.130;-117.188;2023-04-27T00:07:49;99246.72;;;18.71;91.10
37848;BME280;23688;33.130;-117.188;2023-04-27T00:10:15;99258.84;;;18.48;91.52
37848;BME280;23688;33.130;-117.188;2023-04-27T00:12:41;99243.84;;;18.28;91.69
37848;BME280;23688;33.130;-117.188;2023-04-27T00:15:08;99257.13;;;18.53;91.91
37848;BME280;23688;33.130;-117.188;2023-04-27T00:17:35;99259.78;;;18.56;90.83
37848;BME280;23688;33.130;-117.188;2023-04-27T00:20:02;99250.13;;;18.52;90.43
37848;BME280;23688;33.130;-117.188;2023-04-27T00:22:30;99262.44;;;18.59;90.21
37848;BME280;23688;33.130;-117.188;2023-04-27T00:25:02;99248.06;;;18.03;92.99
37848;BME280;23688;33.130;-117.188;2023-04-27T00:27:28;99263.94;;;18.17;93.71
37848;BME280;23688;33.130;-117.188;2023-04-27T00:29:54;99262.72;;;17.80;95.11
37848;BME280;23688;33.130;-117.188;2023-04-27T00:32:21;99248.47;;;17.50;97.11
37848;BME280;23688;33.130;-117.188;2023-04-27T00:34:47;99265.94;;;17.46;99.64
37848;BME280;23688;33.130;-117.188;2023-04-27T00:37:13;99266.00;;;17.54;100.00
37848;BME280;23688;33.130;-117.188;2023-04-27T00:39:40;99251.91;;;17.41;98.48
37848;BME280;23688;33.130;-117.188;2023-04-27T00:42:06;99262.22;;;17.24;100.00
37848;BME280;23688;33.130;-117.188;2023-04-27T00:44:36;99259.56;;;17.23;99.99
37848;BME280;23688;33.130;-117.188;2023-04-27T00:47:02;99258.69;;;17.22;100.00
37848;BME280;23688;33.130;-117.188;2023-04-27T00:49:29;99246.94;;;16.88;100.00
37848;BME280;23688;33.130;-117.188;2023-04-27T00:51:55;99259.81;;;16.71;100.00
37848;BME280;23688;33.130;-117.188;2023-04-27T00:54:22;99258.94;;;16.71;100.00
37848;BME280;23688;33.130;-117.188;2023-04-27T00:56:50;99263.16;;;16.61;100.00
37848;BME280;23688;33.130;-117.188;2023-04-27T00:59:17;99249.78;;;16.41;100.00
37848;BME280;23688;33.130;-117.188;2023-04-27T01:01:45;99272.41;;;16.36;100.00
37848;BME280;23688;33.130;-117.188;2023-04-27T01:04:12;99272.25;;;16.25;100.00
37848;BME280;23688;33.130;-117.188;2023-04-27T01:06:38;99273.09;;;16.24;100.00
37848;BME280;23688;33.130;-117.188;2023-04-27T01:09:04;99273.25;;;16.32;100.00
37848;BME280;23688;33.130;-117.188;2023-04-27T01:11:32;99271.22;;;16.12;100.00
37848;BME280;23688;33.130;-117.188;2023-04-27T01:14:05;99256.84;;;15.89;100.00
37848;BME280;23688;33.130;-117.188;2023-04-27T01:16:34;99275.84;;;15.75;100.00
37848;BME280;23688;33.130;-117.188;2023-04-27T01:19:02;99272.16;;;15.67;100.00
37848;BME280;23688;33.130;-117.188;2023-04-27T01:21:29;99277.56;;;15.73;100.00
37848;BME280;23688;33.130;-117.188;2023-04-27T01:23:56;99274.13;;;15.76;100.00
37848;BME280;23688;33.130;-117.188;2023-04-27T01:26:22;99273.03;;;15.66;100.00
37848;BME280;23688;33.130;-117.188;2023-04-27T01:28:48;99288.69;;;15.65;100.00
37848;BME280;23688;33.130;-117.188;2023-04-27T01:31:15;99279.09;;;15.65;100.00
37848;BME280;23688;33.130;-117.188;2023-04-27T01:33:41;99275.41;;;15.52;100.00
37848;BME280;23688;33.130;-117.188;2023-04-27T01:36:08;99289.63;;;15.67;100.00
37848;BME280;23688;33.130;-117.188;2023-04-27T01:38:35;99282.44;;;15.55;100.00
37848;BME280;23688;33.130;-117.188;2023-04-27T01:41:04;99274.56;;;15.55;100.00
37848;BME280;23688;33.130;-117.188;2023-04-27T01:43:35;99280.03;;;15.67;100.00
37848;BME280;23688;33.130;-117.188;2023-04-27T01:46:09;99287.81;;;15.64;100.00
37848;BME280;23688;33.130;-117.188;2023-04-27T01:48:36;99297.50;;;15.68;100.00
37848;BME280;23688;33.130;-117.188;2023-04-27T01:51:02;99302.81;;;15.71;100.00
37848;BME280;23688;33.130;-117.188;2023-04-27T01:53:29;99303.19;;;15.46;100.00
37848;BME280;23688;33.130;-117.188;2023-04-27T01:55:58;99313.31;;;15.29;100.00
37848;BME280;23688;33.130;-117.188;2023-04-27T01:58:25;99306.38;;;15.29;100.00
37848;BME280;23688;33.130;-117.188;2023-04-27T02:00:51;99304.09;;;15.02;100.00
37848;BME280;23688;33.130;-117.188;2023-04-27T02:03:19;99314.13;;;14.82;100.00
37848;BME280;23688;33.130;-117.188;2023-04-27T02:05:47;99321.34;;;14.92;100.00
37848;BME280;23688;33.130;-117.188;2023-04-27T02:08:13;99317.97;;;14.99;100.00
37848;BME280;23688;33.130;-117.188;2023-04-27T02:10:40;99318.06;;;15.03;100.00
37848;BME280;23688;33.130;-117.188;2023-04-27T02:13:08;99320.66;;;15.03;100.00
37848;BME280;23688;33.130;-117.188;2023-04-27T02:15:36;99328.34;;;14.95;100.00
37848;BME280;23688;33.130;-117.188;2023-04-27T02:18:03;99337.47;;;14.73;100.00
37848;BME280;23688;33.130;-117.188;2023-04-27T02:20:30;99326.97;;;14.71;100.00
37848;BME280;23688;33.130;-117.188;2023-04-27T02:22:56;99324.66;;;14.85;100.00
37848;BME280;23688;33.130;-117.188;2023-04-27T02:25:23;99329.13;;;14.91;100.00
37848;BME280;23688;33.130;-117.188;2023-04-27T02:27:50;99333.59;;;14.96;100.00
37848;BME280;23688;33.130;-117.188;2023-04-27T02:30:16;99333.84;;;15.09;100.00
37848;BME280;23688;33.130;-117.188;2023-04-27T02:32:42;99332.97;;;15.08;100.00
37848;BME280;23688;33.130;-117.188;2023-04-27T02:35:09;99344.78;;;14.89;100.00
37848;BME280;23688;33.130;-117.188;2023-04-27T02:37:35;99346.19;;;14.73;100.00
37848;BME280;23688;33.130;-117.188;2023-04-27T02:40:02;99346.00;;;15.07;100.00
37848;BME280;23688;33.130;-117.188;2023-04-27T02:42:30;99350.75;;;15.25;100.00
37848;BME280;23688;33.130;-117.188;2023-04-27T02:44:56;99343.94;;;15.33;100.00
37848;BME280;23688;33.130;-117.188;2023-04-27T02:47:22;99338.00;;;15.43;100.00
37848;BME280;23688;33.130;-117.188;2023-04-27T02:49:49;99357.00;;;15.33;100.00
37848;BME280;23688;33.130;-117.188;2023-04-27T02:52:15;99356.91;;;15.28;100.00
37848;BME280;23688;33.130;-117.188;2023-04-27T02:54:42;99367.75;;;15.47;100.00
37848;BME280;23688;33.130;-117.188;2023-04-27T02:57:08;99363.66;;;15.61;100.00
37848;BME280;23688;33.130;-117.188;2023-04-27T02:59:34;99367.31;;;15.69;100.00
37848;BME280;23688;33.130;-117.188;2023-04-27T03:02:02;99357.66;;;15.67;100.00
37848;BME280;23688;33.130;-117.188;2023-04-27T03:04:29;99377.09;;;15.78;100.00
37848;BME280;23688;33.130;-117.188;2023-04-27T03:06:55;99376.09;;;15.71;100.00
37848;BME280;23688;33.130;-117.188;2023-04-27T03:09:23;99375.44;;;15.83;100.00
37848;BME280;23688;33.130;-117.188;2023-04-27T03:11:49;99373.81;;;15.88;100.00
37848;BME280;23688;33.130;-117.188;2023-04-27T03:14:15;99372.97;;;15.91;100.00
37848;BME280;23688;33.130;-117.188;2023-04-27T03:16:42;99357.13;;;15.84;100.00
37848;BME280;23688;33.130;-117.188;2023-04-27T03:19:08;99367.72;;;15.91;100.00
37848;BME280;23688;33.130;-117.188;2023-04-27T03:21:35;99362.50;;;15.91;100.00
37848;BME280;23688;33.130;-117.188;2023-04-27T03:24:02;99378.94;;;15.83;100.00
37848;BME280;23688;33.130;-117.188;2023-04-27T03:26:28;99378.78;;;15.74;100.00
37848;BME280;23688;33.130;-117.188;2023-04-27T03:28:54;99379.59;;;15.72;100.00
37848;BME280;23688;33.130;-117.188;2023-04-27T03:31:21;99383.97;;;15.71;100.00
37848;BME280;23688;33.130;-117.188;2023-04-27T03:33:47;99362.91;;;15.67;100.00
37848;BME280;23688;33.130;-117.188;2023-04-27T03:36:13;99393.75;;;15.81;100.00
37848;BME280;23688;33.130;-117.188;2023-04-27T03:38:40;99399.16;;;15.91;100.00
37848;BME280;23688;33.130;-117.188;2023-04-27T03:41:06;99383.34;;;15.86;100.00
37848;BME280;23688;33.130;-117.188;2023-04-27T03:43:32;99398.25;;;15.89;100.00
37848;BME280;23688;33.130;-117.188;2023-04-27T03:45:58;99387.63;;;15.81;100.00
37848;BME280;23688;33.130;-117.188;2023-04-27T03:48:25;99390.94;;;15.71;100.00
37848;BME280;23688;33.130;-117.188;2023-04-27T03:50:51;99393.69;;;15.78;100.00
37848;BME280;23688;33.130;-117.188;2023-04-27T03:53:18;99406.13;;;15.92;100.00
37848;BME280;23688;33.130;-117.188;2023-04-27T03:55:44;99392.22;;;15.93;100.00
37848;BME280;23688;33.130;-117.188;2023-04-27T03:58:11;99396.75;;;16.03;100.00
37848;BME280;23688;33.130;-117.188;2023-04-27T04:00:38;99408.09;;;16.03;100.00
37848;BME280;23688;33.130;-117.188;2023-04-27T04:03:05;99394.97;;;16.02;100.00
37848;BME280;23688;33.130;-117.188;2023-04-27T04:05:33;99392.28;;;15.97;100.00
37848;BME280;23688;33.130;-117.188;2023-04-27T04:07:59;99398.41;;;15.99;100.00
37848;BME280;23688;33.130;-117.188;2023-04-27T04:10:26;99397.66;;;16.05;100.00
37848;BME280;23688;33.130;-117.188;2023-04-27T04:12:52;99403.88;;;16.10;100.00
37848;BME280;23688;33.130;-117.188;2023-04-27T04:15:19;99388.91;;;16.03;100.00
37848;BME280;23688;33.130;-117.188;2023-04-27T04:17:45;99405.59;;;16.10;100.00
37848;BME280;23688;33.130;-117.188;2023-04-27T04:20:14;99405.44;;;16.00;100.00
37848;BME280;23688;33.130;-117.188;2023-04-27T04:22:40;99381.66;;;15.90;100.00
37848;BME280;23688;33.130;-117.188;2023-04-27T04:25:09;99392.47;;;16.08;100.00
37848;BME280;23688;33.130;-117.188;2023-04-27T04:27:35;99397.78;;;16.13;100.00
37848;BME280;23688;33.130;-117.188;2023-04-27T04:30:02;99397.66;;;16.05;100.00
37848;BME280;23688;33.130;-117.188;2023-04-27T04:32:33;99395.97;;;16.07;100.00
37848;BME280;23688;33.130;-117.188;2023-04-27T04:35:05;99402.16;;;16.14;100.00
37848;BME280;23688;33.130;-117.188;2023-04-27T04:37:33;99408.41;;;16.20;100.00
37848;BME280;23688;33.130;-117.188;2023-04-27T04:40:02;99400.50;;;16.19;100.00
37848;BME280;23688;33.130;-117.188;2023-04-27T04:42:34;99405.94;;;16.31;100.00
37848;BME280;23688;33.130;-117.188;2023-04-27T04:45:02;99409.41;;;16.29;100.00
37848;BME280;23688;33.130;-117.188;2023-04-27T04:47:30;99412.09;;;16.32;100.00
37848;BME280;23688;33.130;-117.188;2023-04-27T04:49:58;99416.38;;;16.28;100.00
37848;BME280;23688;33.130;-117.188;2023-04-27T04:52:26;99403.25;;;16.25;100.00
37848;BME280;23688;33.130;-117.188;2023-04-27T04:54:52;99405.81;;;16.23;100.00
37848;BME280;23688;33.130;-117.188;2023-04-27T04:57:19;99409.22;;;16.18;100.00
37848;BME280;23688;33.130;-117.188;2023-04-27T04:59:46;99413.69;;;16.23;100.00
37848;BME280;23688;33.130;-117.188;2023-04-27T05:02:14;99413.59;;;16.17;100.00
37848;BME280;23688;33.130;-117.188;2023-04-27T05:04:42;99408.97;;;16.04;100.00
37848;BME280;23688;33.130;-117.188;2023-04-27T05:07:08;99406.56;;;16.15;100.00
37848;BME280;23688;33.130;-117.188;2023-04-27T05:09:35;99404.88;;;16.18;100.00
37848;BME280;23688;33.130;-117.188;2023-04-27T05:12:02;99400.59;;;16.22;100.00
37848;BME280;23688;33.130;-117.188;2023-04-27T05:14:28;99397.91;;;16.20;100.00
37848;BME280;23688;33.130;-117.188;2023-04-27T05:16:54;99381.13;;;16.08;100.00
37848;BME280;23688;33.130;-117.188;2023-04-27T05:19:21;99408.31;;;16.16;100.00
37848;BME280;23688;33.130;-117.188;2023-04-27T05:21:47;99395.34;;;16.22;100.00
37848;BME280;23688;33.130;-117.188;2023-04-27T05:24:14;99403.06;;;16.14;100.00
37848;BME280;23688;33.130;-117.188;2023-04-27T05:26:42;99408.44;;;16.22;100.00
37848;BME280;23688;33.130;-117.188;2023-04-27T05:29:10;99406.75;;;16.25;100.00
37848;BME280;23688;33.130;-117.188;2023-04-27T05:31:36;99405.06;;;16.31;100.00
37848;BME280;23688;33.130;-117.188;2023-04-27T05:34:02;99393.72;;;16.30;100.00
37848;BME280;23688;33.130;-117.188;2023-04-27T05:36:28;99398.25;;;16.39;100.00
37848;BME280;23688;33.130;-117.188;2023-04-27T05:38:55;99406.22;;;16.46;100.00
37848;BME280;23688;33.130;-117.188;2023-04-27T05:41:25;99402.72;;;16.47;100.00
37848;BME280;23688;33.130;-117.188;2023-04-27T05:43:52;99393.03;;;16.42;100.00
37848;BME280;23688;33.130;-117.188;2023-04-27T05:46:18;99395.63;;;16.40;100.00
37848;BME280;23688;33.130;-117.188;2023-04-27T05:48:45;99402.72;;;16.46;100.00
37848;BME280;23688;33.130;-117.188;2023-04-27T05:51:12;99402.69;;;16.44;100.00
37848;BME280;23688;33.130;-117.188;2023-04-27T05:53:38;99386.91;;;16.40;100.00
37848;BME280;23688;33.130;-117.188;2023-04-27T05:56:06;99400.13;;;16.47;100.00
37848;BME280;23688;33.130;-117.188;2023-04-27T05:58:32;99392.09;;;16.38;100.00
37848;BME280;23688;33.130;-117.188;2023-04-27T06:01:01;99394.78;;;16.43;100.00
37848;BME280;23688;33.130;-117.188;2023-04-27T06:03:31;99397.50;;;16.47;100.00
37848;BME280;23688;33.130;-117.188;2023-04-27T06:05:59;99379.88;;;16.37;100.00
37848;BME280;23688;33.130;-117.188;2023-04-27T06:08:27;99393.88;;;16.41;100.00
37848;BME280;23688;33.130;-117.188;2023-04-27T06:10:54;99380.78;;;16.41;100.00
37848;BME280;23688;33.130;-117.188;2023-04-27T06:13:21;99386.91;;;16.40;100.00
37848;BME280;23688;33.130;-117.188;2023-04-27T06:15:48;99377.16;;;16.33;100.00
37848;BME280;23688;33.130;-117.188;2023-04-27T06:18:15;99374.38;;;16.23;100.00
37848;BME280;23688;33.130;-117.188;2023-04-27T06:20:42;99371.78;;;16.23;100.00
37848;BME280;23688;33.130;-117.188;2023-04-27T06:23:08;99386.75;;;16.31;100.00
37848;BME280;23688;33.130;-117.188;2023-04-27T06:25:35;99383.13;;;16.22;100.00
37848;BME280;23688;33.130;-117.188;2023-04-27T06:28:03;99375.84;;;16.04;100.00
37848;BME280;23688;33.130;-117.188;2023-04-27T06:30:29;99379.50;;;16.14;100.00
37848;BME280;23688;33.130;-117.188;2023-04-27T06:32:56;99384.78;;;16.17;100.00
37848;BME280;23688;33.130;-117.188;2023-04-27T06:35:22;99385.69;;;16.19;100.00
37848;BME280;23688;33.130;-117.188;2023-04-27T06:37:48;99385.53;;;16.10;100.00
37848;BME280;23688;33.130;-117.188;2023-04-27T06:40:15;99379.25;;;16.02;100.00
37848;BME280;23688;33.130;-117.188;2023-04-27T06:42:41;99386.28;;;16.03;100.00
37848;BME280;23688;33.130;-117.188;2023-04-27T06:45:07;99373.28;;;16.09;100.00
37848;BME280;23688;33.130;-117.188;2023-04-27T06:47:34;99374.94;;;16.02;100.00
37848;BME280;23688;33.130;-117.188;2023-04-27T06:50:00;99381.66;;;15.90;100.00
37848;BME280;23688;33.130;-117.188;2023-04-27T06:52:26;99384.28;;;15.90;100.00
37848;BME280;23688;33.130;-117.188;2023-04-27T06:54:53;99381.59;;;15.85;100.00
37848;BME280;23688;33.130;-117.188;2023-04-27T06:57:19;99381.75;;;15.93;100.00
37848;BME280;23688;33.130;-117.188;2023-04-27T06:59:46;99377.38;;;15.93;100.00
37848;BME280;23688;33.130;-117.188;2023-04-27T07:02:12;99384.50;;;16.02;100.00
37848;BME280;23688;33.130;-117.188;2023-04-27T07:04:38;99374.88;;;16.01;100.00
37848;BME280;23688;33.130;-117.188;2023-04-27T07:07:05;99368.81;;;16.03;100.00
37848;BME280;23688;33.130;-117.188;2023-04-27T07:09:31;99377.38;;;15.93;100.00
37848;BME280;23688;33.130;-117.188;2023-04-27T07:11:58;99374.00;;;16.00;100.00
37848;BME280;23688;33.130;-117.188;2023-04-27T07:14:26;99375.69;;;15.97;100.00
37848;BME280;23688;33.130;-117.188;2023-04-27T07:16:52;99376.47;;;15.91;100.00
37848;BME280;23688;33.130;-117.188;2023-04-27T07:19:18;99370.31;;;15.88;100.00
37848;BME280;23688;33.130;-117.188;2023-04-27T07:21:44;99358.97;;;15.89;100.00
37848;BME280;23688;33.130;-117.188;2023-04-27T07:24:11;99372.13;;;15.93;100.00
37848;BME280;23688;33.130;-117.188;2023-04-27T07:26:37;99351.91;;;15.84;100.00
37848;BME280;23688;33.130;-117.188;2023-04-27T07:29:04;99377.44;;;15.96;100.00
37848;BME280;23688;33.130;-117.188;2023-04-27T07:31:31;99383.53;;;15.97;100.00
37848;BME280;23688;33.130;-117.188;2023-04-27T07:33:58;99371.25;;;15.93;100.00
37848;BME280;23688;33.130;-117.188;2023-04-27T07:36:27;99365.06;;;15.89;100.00
37848;BME280;23688;33.130;-117.188;2023-04-27T07:38:53;99378.25;;;15.94;100.00
37848;BME280;23688;33.130;-117.188;2023-04-27T07:41:21;99361.72;;;15.51;100.00
37848;BME280;23688;33.130;-117.188;2023-04-27T07:43:48;99377.78;;;15.69;100.00
37848;BME280;23688;33.130;-117.188;2023-04-27T07:46:16;99375.97;;;15.67;100.00
37848;BME280;23688;33.130;-117.188;2023-04-27T07:48:46;99374.94;;;15.57;100.00
37848;BME280;23688;33.130;-117.188;2023-04-27T07:51:14;99370.28;;;15.42;100.00
37848;BME280;23688;33.130;-117.188;2023-04-27T07:53:42;99378.91;;;15.36;100.00
37848;BME280;23688;33.130;-117.188;2023-04-27T07:56:08;99372.03;;;15.41;100.00
37848;BME280;23688;33.130;-117.188;2023-04-27T07:58:35;99368.81;;;15.56;100.00
37848;BME280;23688;33.130;-117.188;2023-04-27T08:01:02;99357.53;;;15.60;100.00
37848;BME280;23688;33.130;-117.188;2023-04-27T08:03:29;99352.28;;;15.59;100.00
37848;BME280;23688;33.130;-117.188;2023-04-27T08:05:55;99367.25;;;15.66;100.00
37848;BME280;23688;33.130;-117.188;2023-04-27T08:08:22;99349.63;;;15.56;100.00
37848;BME280;23688;33.130;-117.188;2023-04-27T08:10:48;99362.84;;;15.65;100.00
37848;BME280;23688;33.130;-117.188;2023-04-27T08:13:14;99356.75;;;15.63;100.00
37848;BME280;23688;33.130;-117.188;2023-04-27T08:15:41;99367.22;;;15.65;100.00
37848;BME280;23688;33.130;-117.188;2023-04-27T08:18:07;99363.66;;;15.61;100.00
37848;BME280;23688;33.130;-117.188;2023-04-27T08:20:33;99366.38;;;15.66;100.00
37848;BME280;23688;33.130;-117.188;2023-04-27T08:23:00;99370.63;;;15.60;100.00
37848;BME280;23688;33.130;-117.188;2023-04-27T08:25:26;99360.97;;;15.58;100.00
37848;BME280;23688;33.130;-117.188;2023-04-27T08:27:52;99368.25;;;15.27;100.00
37848;BME280;23688;33.130;-117.188;2023-04-27T08:30:19;99362.97;;;15.26;100.00
37848;BME280;23688;33.130;-117.188;2023-04-27T08:32:45;99332.41;;;15.22;100.00
37848;BME280;23688;33.130;-117.188;2023-04-27T08:35:14;99353.75;;;15.45;100.00
37848;BME280;23688;33.130;-117.188;2023-04-27T08:37:40;99354.78;;;15.53;100.00
37848;BME280;23688;33.130;-117.188;2023-04-27T08:40:07;99354.00;;;15.57;100.00
37848;BME280;23688;33.130;-117.188;2023-04-27T08:42:34;99343.56;;;15.58;100.00
37848;BME280;23688;33.130;-117.188;2023-04-27T08:45:01;99334.75;;;15.53;100.00
37848;BME280;23688;33.130;-117.188;2023-04-27T08:47:29;99348.72;;;15.55;100.00
37848;BME280;23688;33.130;-117.188;2023-04-27T08:49:58;99351.19;;;15.48;100.00
37848;BME280;23688;33.130;-117.188;2023-04-27T08:52:25;99349.38;;;15.44;100.00
37848;BME280;23688;33.130;-117.188;2023-04-27T08:54:53;99325.56;;;15.30;100.00
37848;BME280;23688;33.130;-117.188;2023-04-27T08:57:19;99334.38;;;15.35;100.00
37848;BME280;23688;33.130;-117.188;2023-04-27T08:59:57;99326.44;;;15.30;100.00
37848;BME280;23688;33.130;-117.188;2023-04-27T09:02:26;99342.31;;;15.39;100.00
37848;BME280;23688;33.130;-117.188;2023-04-27T09:04:54;99337.19;;;15.44;100.00
37848;BME280;23688;33.130;-117.188;2023-04-27T09:07:21;99339.84;;;15.47;100.00
37848;BME280;23688;33.130;-117.188;2023-04-27T09:09:47;99342.44;;;15.46;100.00
37848;BME280;23688;33.130;-117.188;2023-04-27T09:12:18;99339.56;;;15.32;100.00
37848;BME280;23688;33.130;-117.188;2023-04-27T09:14:59;99327.84;;;15.13;100.00
37848;BME280;23688;33.130;-117.188;2023-04-27T09:17:29;99337.47;;;15.15;100.00
37848;BME280;23688;33.130;-117.188;2023-04-27T09:20:09;99317.50;;;15.19;100.00
37848;BME280;23688;33.130;-117.188;2023-04-27T09:22:48;99326.50;;;15.33;100.00
37848;BME280;23688;33.130;-117.188;2023-04-27T09:25:31;99309.00;;;15.29;100.00
37848;BME280;23688;33.130;-117.188;2023-04-27T09:27:59;99296.75;;;15.28;100.00
37848;BME280;23688;33.130;-117.188;2023-04-27T09:30:27;99307.41;;;15.37;100.00
37848;BME280;23688;33.130;-117.188;2023-04-27T09:32:59;99312.72;;;15.42;100.00
37848;BME280;23688;33.130;-117.188;2023-04-27T09:35:31;99296.88;;;15.34;100.00
37848;BME280;23688;33.130;-117.188;2023-04-27T09:37:58;99286.16;;;15.20;100.00
37848;BME280;23688;33.130;-117.188;2023-04-27T09:40:28;99303.59;;;15.20;100.00
37848;BME280;23688;33.130;-117.188;2023-04-27T09:42:57;99315.97;;;15.30;100.00
37848;BME280;23688;33.130;-117.188;2023-04-27T09:45:28;99312.50;;;15.31;100.00
37848;BME280;23688;33.130;-117.188;2023-04-27T09:47:54;99292.84;;;15.05;100.00
37848;BME280;23688;33.130;-117.188;2023-04-27T09:50:21;99311.38;;;15.17;100.00
37848;BME280;23688;33.130;-117.188;2023-04-27T09:52:48;99308.09;;;15.27;100.00
37848;BME280;23688;33.130;-117.188;2023-04-27T09:55:27;99313.50;;;15.38;100.00
37848;BME280;23688;33.130;-117.188;2023-04-27T10:09:24;99304.84;;;14.95;100.00
37848;BME280;23688;33.130;-117.188;2023-04-27T10:11:53;99308.28;;;14.92;100.00
37848;BME280;23688;33.130;-117.188;2023-04-27T10:14:21;99306.78;;;15.07;100.00
37848;BME280;23688;33.130;-117.188;2023-04-27T10:16:52;99300.91;;;15.17;100.00
37848;BME280;23688;33.130;-117.188;2023-04-27T10:19:19;99290.28;;;15.09;100.00
37848;BME280;23688;33.130;-117.188;2023-04-27T10:22:00;99285.97;;;15.10;100.00
37848;BME280;23688;33.130;-117.188;2023-04-27T10:24:34;99274.56;;;15.08;100.00
37848;BME280;23688;33.130;-117.188;2023-04-27T10:27:03;99306.34;;;15.28;100.00
37848;BME280;23688;33.130;-117.188;2023-04-27T10:29:36;99306.47;;;15.35;100.00
37848;BME280;23688;33.130;-117.188;2023-04-27T10:34:45;99297.81;;;15.36;100.00
37848;BME280;23688;33.130;-117.188;2023-04-27T10:37:14;99295.16;;;15.35;100.00
37848;BME280;23688;33.130;-117.188;2023-04-27T10:39:44;99298.69;;;15.38;100.00
37848;BME280;23688;33.130;-117.188;2023-04-27T10:42:11;99296.13;;;15.40;100.00
37848;BME280;23688;33.130;-117.188;2023-04-27T10:44:38;99292.56;;;15.36;100.00
37848;BME280;23688;33.130;-117.188;2023-04-27T10:47:15;99292.09;;;15.12;100.00
37848;BME280;23688;33.130;-117.188;2023-04-27T10:49:44;99291.38;;;15.20;100.00
37848;BME280;23688;33.130;-117.188;2023-04-27T10:52:11;99290.41;;;15.15;100.00
37848;BME280;23688;33.130;-117.188;2023-04-27T10:54:37;99283.69;;;15.28;100.00
37848;BME280;23688;33.130;-117.188;2023-04-27T10:57:08;99269.50;;;15.15;100.00
37848;BME280;23688;33.130;-117.188;2023-04-27T10:59:48;99291.47;;;15.25;100.00
37848;BME280;23688;33.130;-117.188;2023-04-27T11:02:15;99281.88;;;15.24;100.00
37848;BME280;23688;33.130;-117.188;2023-04-27T11:04:42;99279.94;;;15.15;100.00
37848;BME280;23688;33.130;-117.188;2023-04-27T11:07:09;99281.75;;;15.18;100.00
37848;BME280;23688;33.130;-117.188;2023-04-27T11:09:38;99287.84;;;15.18;100.00
37848;BME280;23688;33.130;-117.188;2023-04-27T11:12:06;99284.25;;;15.12;100.00
37848;BME280;23688;33.130;-117.188;2023-04-27T11:14:35;99289.41;;;15.09;100.00
37848;BME280;23688;33.130;-117.188;2023-04-27T11:17:05;99291.09;;;15.07;100.00
37848;BME280;23688;33.130;-117.188;2023-04-27T11:19:32;99283.19;;;15.04;100.00
37848;BME280;23688;33.130;-117.188;2023-04-27T11:22:05;99285.03;;;15.09;100.00
37848;BME280;23688;33.130;-117.188;2023-04-27T11:24:32;99264.03;;;15.03;100.00
37848;BME280;23688;33.130;-117.188;2023-04-27T11:26:58;99267.66;;;15.10;100.00
37848;BME280;23688;33.130;-117.188;2023-04-27T11:29:25;99275.59;;;15.16;100.00
37848;BME280;23688;33.130;-117.188;2023-04-27T11:31:51;99264.91;;;15.04;100.00
37848;BME280;23688;33.130;-117.188;2023-04-27T11:34:22;99294.66;;;15.10;100.00
37848;BME280;23688;33.130;-117.188;2023-04-27T11:37:02;99284.13;;;15.06;100.00
37848;BME280;23688;33.130;-117.188;2023-04-27T11:39:35;99287.72;;;15.11;100.00
37848;BME280;23688;33.130;-117.188;2023-04-27T11:42:21;99300.81;;;15.12;100.00
37848;BME280;23688;33.130;-117.188;2023-04-27T11:47:19;99295.44;;;15.05;100.00
37848;BME280;23688;33.130;-117.188;2023-04-27T11:49:51;99304.13;;;15.04;100.00
37848;BME280;23688;33.130;-117.188;2023-04-27T11:52:17;99283.97;;;14.99;100.00
37848;BME280;23688;33.130;-117.188;2023-04-27T11:54:52;99296.28;;;15.04;100.00
37848;BME280;23688;33.130;-117.188;2023-04-27T11:57:25;99291.19;;;15.10;100.00
37848;BME280;23688;33.130;-117.188;2023-04-27T11:59:52;99299.94;;;15.12;100.00
37848;BME280;23688;33.130;-117.188;2023-04-27T12:02:19;99298.16;;;15.11;100.00
37848;BME280;23688;33.130;-117.188;2023-04-27T12:04:49;99293.59;;;15.01;100.00
37848;BME280;23688;33.130;-117.188;2023-04-27T12:07:16;99296.16;;;14.97;100.00
37848;BME280;23688;33.130;-117.188;2023-04-27T12:09:43;99297.00;;;14.96;100.00
37848;BME280;23688;33.130;-117.188;2023-04-27T12:12:10;99294.38;;;14.96;100.00
37848;BME280;23688;33.130;-117.188;2023-04-27T12:14:40;99296.22;;;15.01;100.00
37848;BME280;23688;33.130;-117.188;2023-04-27T12:17:06;99288.31;;;14.97;100.00
37848;BME280;23688;33.130;-117.188;2023-04-27T12:19:32;99284.75;;;14.92;100.00
37848;BME280;23688;33.130;-117.188;2023-04-27T12:21:59;99298.06;;;15.05;100.00
37848;BME280;23688;33.130;-117.188;2023-04-27T12:24:28;99299.88;;;15.09;100.00
37848;BME280;23688;33.130;-117.188;2023-04-27T12:26:55;99298.16;;;15.11;100.00
37848;BME280;23688;33.130;-117.188;2023-04-27T12:29:21;99307.84;;;15.15;100.00
37848;BME280;23688;33.130;-117.188;2023-04-27T12:31:49;99302.47;;;15.09;100.00
37848;BME280;23688;33.130;-117.188;2023-04-27T12:34:16;99310.22;;;15.04;100.00
37848;BME280;23688;33.130;-117.188;2023-04-27T12:36:42;99309.25;;;14.99;100.00
37848;BME280;23688;33.130;-117.188;2023-04-27T12:39:17;99313.59;;;14.98;100.00